Time;durP1;ratioP1;P1;durP2;ratioP2;P2;SDS_P1;SDS_P2;PMS_P1;PMS_P2;Temp;Humidity;BMP_temperature;BMP_pressure;BME280_temperature;BME280_humidity;BME280_pressure;Samples;Min_cycle;Max_cycle;Signal;HPM_P1;HPM_P2
2023/12/01 00:01:23;;;;;;;12.00;8.00;;;;;;;0.06;100.00;95693.75;5122321;28;20388;-79
2023/12/01 00:03:49;;;;;;;14.95;8.68;;;;;;;0.07;100.00;95694.53;5122657;28;20491;-79
2023/12/01 00:06:17;;;;;;;14.63;8.00;;;;;;;0.06;100.00;95675.53;5122783;28;20907;-79
2023/12/01 00:08:43;;;;;;;14.70;7.80;;;;;;;0.07;100.00;95686.72;5122481;28;20388;-79
2023/12/01 00:11:09;;;;;;;12.80;7.50;;;;;;;0.05;100.00;95686.94;5121748;28;20861;-79
2023/12/01 00:13:35;;;;;;;13.55;8.13;;;;;;;0.06;100.00;95675.53;5121280;28;20392;-79
2023/12/01 00:16:02;;;;;;;14.20;8.10;;;;;;;0.06;100.00;95679.94;5122217;28;20400;-79
2023/12/01 00:18:28;;;;;;;14.90;8.63;;;;;;;0.05;100.00;95681.75;5121979;28;20752;-79
2023/12/01 00:20:54;;;;;;;22.48;11.40;;;;;;;0.06;100.00;95680.72;5122413;28;20841;-79
2023/12/01 00:23:22;;;;;;;19.92;10.80;;;;;;;0.07;100.00;95686.72;5123169;28;20477;-79
2023/12/01 00:25:48;;;;;;;16.75;9.95;;;;;;;0.08;100.00;95678.69;5122506;28;20392;-79
2023/12/01 00:28:14;;;;;;;17.45;9.82;;;;;;;0.08;100.00;95680.47;5123736;28;20799;-79
2023/12/01 00:30:40;;;;;;;15.48;9.07;;;;;;;0.08;100.00;95683.09;5126009;28;20392;-79
2023/12/01 00:33:06;;;;;;;14.20;8.80;;;;;;;0.09;100.00;95684.66;5124074;28;20887;-79
2023/12/01 00:35:33;;;;;;;14.95;9.00;;;;;;;0.09;100.00;95687.28;5124039;28;20404;-79
2023/12/01 00:37:59;;;;;;;15.90;9.27;;;;;;;0.09;100.00;95682.88;5125276;28;20420;-79
2023/12/01 00:40:26;;;;;;;13.32;8.50;;;;;;;0.09;100.00;95688.06;5132099;28;20381;-79
2023/12/01 00:42:52;;;;;;;14.43;8.93;;;;;;;0.11;100.00;95693.84;5127868;28;20396;-78
2023/12/01 00:45:18;;;;;;;14.98;9.48;;;;;;;0.10;100.00;95681.06;5124083;28;20429;-79
2023/12/01 00:47:45;;;;;;;13.80;9.15;;;;;;;0.11;100.00;95685.25;5123367;28;20432;-79
2023/12/01 00:50:11;;;;;;;13.53;8.53;;;;;;;0.11;100.00;95693.84;5123146;28;20471;-79
2023/12/01 00:52:37;;;;;;;16.55;9.57;;;;;;;0.11;100.00;95685.25;5123767;28;20724;-79
2023/12/01 00:55:04;;;;;;;15.32;9.55;;;;;;;0.11;100.00;95703.47;5121908;28;20437;-78
2023/12/01 00:57:32;;;;;;;14.85;8.85;;;;;;;0.10;100.00;95697.47;5121591;28;20424;-79
2023/12/01 00:59:58;;;;;;;13.98;9.50;;;;;;;0.10;100.00;95701.88;5120580;28;20399;-78
2023/12/01 01:02:24;;;;;;;16.42;9.65;;;;;;;0.08;100.00;95698.69;5120629;28;20403;-78
2023/12/01 01:04:50;;;;;;;15.60;9.87;;;;;;;0.06;100.00;95695.53;5118195;28;20400;-78
2023/12/01 01:07:16;;;;;;;16.45;10.07;;;;;;;0.03;100.00;95693.38;5119012;28;20449;-78
2023/12/01 01:09:42;;;;;;;15.60;9.32;;;;;;;-0.01;100.00;95696.47;5117997;28;20403;-78
2023/12/01 01:12:09;;;;;;;15.02;9.52;;;;;;;-0.02;100.00;95701.88;5119350;28;20396;-78
2023/12/01 01:14:36;;;;;;;15.20;9.50;;;;;;;-0.05;100.00;95697.91;5121676;28;20728;-79
2023/12/01 01:17:02;;;;;;;15.53;9.30;;;;;;;-0.07;100.00;95696.53;5124206;28;20402;-78
2023/12/01 01:19:29;;;;;;;13.35;8.45;;;;;;;-0.10;100.00;95691.81;5124233;28;20397;-79
2023/12/01 01:21:55;;;;;;;14.38;9.00;;;;;;;-0.12;100.00;95699.03;5123753;28;20397;-78
2023/12/01 01:24:21;;;;;;;13.45;8.75;;;;;;;-0.15;100.00;95707.31;5124446;28;20392;-79
2023/12/01 01:26:47;;;;;;;14.13;9.00;;;;;;;-0.17;100.00;95693.72;5105236;28;20939;-79
2023/12/01 01:29:14;;;;;;;14.70;8.80;;;;;;;-0.18;100.00;95705.13;5124300;28;20394;-79
2023/12/01 01:31:41;;;;;;;13.88;9.00;;;;;;;-0.20;100.00;95702.75;5123800;28;20392;-79
2023/12/01 01:34:08;;;;;;;15.38;9.43;;;;;;;-0.22;100.00;95707.38;5124172;28;20418;-79
2023/12/01 01:36:34;;;;;;;15.23;9.05;;;;;;;-0.23;100.00;95698.03;5123755;28;20397;-79
2023/12/01 01:39:00;;;;;;;14.07;8.88;;;;;;;-0.26;100.00;95690.66;5123096;28;20395;-79
2023/12/01 01:41:26;;;;;;;14.13;9.02;;;;;;;-0.27;100.00;95701.28;5123495;28;20448;-79
2023/12/01 01:43:53;;;;;;;15.90;9.83;;;;;;;-0.29;100.00;95705.91;5128886;28;20403;-79
2023/12/01 01:46:19;;;;;;;16.88;9.15;;;;;;;-0.31;100.00;95702.75;5125080;28;20492;-79
2023/12/01 01:48:47;;;;;;;22.17;12.55;;;;;;;-0.35;100.00;95699.78;5125775;28;20397;-79
2023/12/01 01:51:14;;;;;;;23.17;12.85;;;;;;;-0.39;100.00;95701.28;5127775;28;20400;-78
2023/12/01 01:53:41;;;;;;;20.90;11.57;;;;;;;-0.43;100.00;95698.31;5121643;28;20416;-79
2023/12/01 01:56:09;;;;;;;18.20;11.40;;;;;;;-0.46;100.00;95708.38;5121034;28;20420;-78
2023/12/01 01:58:35;;;;;;;21.90;12.40;;;;;;;-0.49;100.00;95719.22;5102713;28;20396;-78
2023/12/01 02:01:01;;;;;;;23.85;13.27;;;;;;;-0.51;100.00;95729.03;5120887;28;20887;-77
2023/12/01 02:03:28;;;;;;;24.70;14.07;;;;;;;-0.54;100.00;95732.88;5107731;28;20527;-78
2023/12/01 02:05:55;;;;;;;27.35;14.20;;;;;;;-0.56;100.00;95741.91;5100234;28;20450;-79
2023/12/01 02:08:24;;;;;;;24.85;14.05;;;;;;;-0.56;100.00;95745.28;5100910;28;20398;-78
2023/12/01 02:10:51;;;;;;;25.85;13.63;;;;;;;-0.56;100.00;95741.91;5100699;28;20879;-78
2023/12/01 02:13:18;;;;;;;24.67;13.43;;;;;;;-0.56;100.00;95729.69;5100886;28;20401;-78
2023/12/01 02:15:44;;;;;;;22.55;12.25;;;;;;;-0.55;100.00;95720.09;5101728;28;20390;-79
2023/12/01 02:18:19;;;;;;;21.85;11.70;;;;;;;-0.56;100.00;95714.13;5103241;28;20440;-79
2023/12/01 02:20:46;;;;;;;25.75;12.55;;;;;;;-0.56;100.00;95716.72;5101749;28;20426;-78
2023/12/01 02:23:13;;;;;;;22.77;12.13;;;;;;;-0.57;100.00;95720.31;5100651;28;20440;-79
2023/12/01 02:25:39;;;;;;;21.70;12.30;;;;;;;-0.57;100.00;95711.72;5100072;28;20440;-78
2023/12/01 02:28:05;;;;;;;25.20;12.90;;;;;;;-0.60;100.00;95728.53;5099583;28;20406;-78
2023/12/01 02:30:32;;;;;;;22.10;12.88;;;;;;;-0.60;100.00;95727.78;5098971;28;20390;-78
2023/12/01 02:32:59;;;;;;;23.90;13.10;;;;;;;-0.62;100.00;95716.81;5100289;28;20394;-78
2023/12/01 02:35:29;;;;;;;23.08;12.68;;;;;;;-0.63;100.00;95723.81;5100565;28;20394;-78
2023/12/01 02:37:55;;;;;;;23.65;12.32;;;;;;;-0.63;100.00;95726.41;5101017;28;20398;-79
2023/12/01 02:40:23;;;;;;;21.10;11.90;;;;;;;-0.65;100.00;95731.03;5102014;28;20396;-79
2023/12/01 02:42:51;;;;;;;18.98;11.30;;;;;;;-0.65;100.00;95725.03;5083907;28;20430;-79
2023/12/01 02:45:17;;;;;;;20.27;12.02;;;;;;;-0.64;100.00;95721.44;5103708;28;20949;-79
2023/12/01 02:47:47;;;;;;;20.58;11.32;;;;;;;-0.64;100.00;95724.03;5106324;28;20397;-79
2023/12/01 02:50:13;;;;;;;22.92;12.43;;;;;;;-0.65;100.00;95727.63;5112686;28;20406;-79
2023/12/01 02:52:41;;;;;;;21.45;11.80;;;;;;;-0.66;100.00;95732.03;5107863;28;20409;-78
2023/12/01 02:55:08;;;;;;;20.40;11.60;;;;;;;-0.65;100.00;95735.41;5101644;28;20405;-78
2023/12/01 02:57:36;;;;;;;25.63;13.00;;;;;;;-0.66;100.00;95741.63;5083995;28;20935;-79
2023/12/01 03:00:05;;;;;;;26.02;12.90;;;;;;;-0.67;100.00;95735.63;5101089;28;20401;-79
2023/12/01 03:02:32;;;;;;;24.33;12.53;;;;;;;-0.67;100.00;95732.25;5102260;28;20394;-79
2023/12/01 03:04:58;;;;;;;23.90;12.38;;;;;;;-0.67;100.00;95719.25;5103666;28;20406;-79
2023/12/01 03:07:24;;;;;;;23.60;12.20;;;;;;;-0.69;100.00;95719.50;5103214;28;20417;-78
2023/12/01 03:09:50;;;;;;;20.13;11.50;;;;;;;-0.69;100.00;95719.50;5102535;28;20390;-78
2023/12/01 03:12:17;;;;;;;22.40;11.38;;;;;;;-0.69;100.00;95727.28;5101437;28;20398;-78
2023/12/01 03:14:44;;;;;;;26.20;12.57;;;;;;;-0.69;100.00;95721.31;5100212;28;20396;-78
2023/12/01 03:17:10;;;;;;;29.30;15.13;;;;;;;-0.70;100.00;95728.31;5100231;28;20390;-78
2023/12/01 03:19:36;;;;;;;30.55;15.07;;;;;;;-0.69;100.00;95734.28;5100639;28;20402;-78
2023/12/01 03:22:03;;;;;;;26.63;13.55;;;;;;;-0.70;100.00;95735.31;5101114;28;20428;-78
2023/12/01 03:24:29;;;;;;;25.80;13.13;;;;;;;-0.71;100.00;95742.31;5102050;28;20394;-78
2023/12/01 03:26:55;;;;;;;26.80;13.57;;;;;;;-0.71;100.00;95742.31;5101468;28;20418;-78
2023/12/01 03:29:21;;;;;;;24.15;12.90;;;;;;;-0.71;100.00;95734.50;5101457;28;20408;-78
2023/12/01 03:31:49;;;;;;;23.15;12.20;;;;;;;-0.71;100.00;95739.69;5102209;28;20413;-78
2023/12/01 03:34:15;;;;;;;21.45;11.38;;;;;;;-0.71;100.00;95731.91;5102680;28;20758;-77
2023/12/01 03:36:42;;;;;;;18.65;10.73;;;;;;;-0.70;100.00;95736.09;5100018;28;20389;-79
2023/12/01 03:39:09;;;;;;;18.63;10.27;;;;;;;-0.71;100.00;95731.91;5101496;28;20435;-78
2023/12/01 03:41:36;;;;;;;20.58;10.40;;;;;;;-0.70;100.00;95724.91;5102281;28;20393;-78
2023/12/01 03:44:02;;;;;;;18.42;10.40;;;;;;;-0.70;100.00;95720.50;5101998;28;20389;-78
2023/12/01 03:46:28;;;;;;;18.63;9.77;;;;;;;-0.70;100.00;95710.13;5085842;28;20505;-78
2023/12/01 03:48:56;;;;;;;20.20;10.23;;;;;;;-0.68;100.00;95722.91;5105225;28;20386;-78
2023/12/01 03:51:22;;;;;;;17.50;9.55;;;;;;;-0.69;100.00;95729.91;5105923;28;20389;-78
2023/12/01 03:53:48;;;;;;;16.42;9.68;;;;;;;-0.69;100.00;95731.69;5102054;28;20398;-78
2023/12/01 03:56:15;;;;;;;16.88;9.65;;;;;;;-0.70;100.00;95733.50;5101495;28;20742;-78
2023/12/01 03:58:41;;;;;;;21.30;10.90;;;;;;;-0.70;100.00;95733.50;5096606;28;20394;-77
2023/12/01 04:01:07;;;;;;;18.27;10.50;;;;;;;-0.70;100.00;95733.50;5095909;28;20390;-78
2023/12/01 04:03:33;;;;;;;19.05;10.70;;;;;;;-0.70;100.00;95728.31;5096309;28;20889;-77
2023/12/01 04:06:01;;;;;;;20.50;11.38;;;;;;;-0.70;100.00;95732.72;5095474;28;20748;-78
2023/12/01 04:08:27;;;;;;;22.90;11.73;;;;;;;-0.70;100.00;95725.72;5101316;28;20668;-78
2023/12/01 04:10:55;;;;;;;21.50;10.88;;;;;;;-0.71;100.00;95721.53;5095749;28;20446;-78
2023/12/01 04:13:21;;;;;;;20.63;11.10;;;;;;;-0.71;100.00;95724.13;5095841;28;20397;-78
2023/12/01 04:15:47;;;;;;;20.10;10.75;;;;;;;-0.70;100.00;95736.09;5095058;28;20394;-78
2023/12/01 04:18:14;;;;;;;18.30;10.57;;;;;;;-0.70;100.00;95749.09;5094992;28;20401;-77
2023/12/01 04:20:40;;;;;;;17.45;9.90;;;;;;;-0.70;100.00;95746.50;5094470;28;20398;-78
2023/12/01 04:23:10;;;;;;;19.38;10.48;;;;;;;-0.69;100.00;95742.09;5094698;28;20390;-78
2023/12/01 04:25:37;;;;;;;19.60;9.95;;;;;;;-0.69;100.00;95740.28;5095020;28;20390;-77
2023/12/01 04:28:05;;;;;;;19.40;9.90;;;;;;;-0.69;100.00;95740.28;5095404;28;20504;-78
2023/12/01 04:30:32;;;;;;;19.77;11.13;;;;;;;-0.69;100.00;95742.88;5094296;28;20397;-78
2023/12/01 04:32:59;;;;;;;19.85;11.48;;;;;;;-0.69;100.00;95742.88;5094989;28;20435;-78
2023/12/01 04:35:27;;;;;;;19.95;11.30;;;;;;;-0.69;100.00;95745.47;5095222;28;20394;-78
2023/12/01 04:37:54;;;;;;;20.25;11.43;;;;;;;-0.68;100.00;95741.06;5095975;28;20402;-78
2023/12/01 04:40:22;;;;;;;23.35;11.10;;;;;;;-0.69;100.00;95742.09;5095953;28;20403;-78
2023/12/01 04:42:51;;;;;;;16.83;10.93;;;;;;;-0.68;100.00;95743.69;5096755;28;20390;-78
2023/12/01 04:45:19;;;;;;;18.95;10.00;;;;;;;-0.69;100.00;95739.50;5095966;28;20390;-78
2023/12/01 04:47:50;;;;;;;26.23;12.75;;;;;;;-0.69;100.00;95745.47;5094029;28;20437;-78
2023/12/01 04:50:18;;;;;;;19.23;11.60;;;;;;;-0.69;100.00;95742.09;5078766;28;20394;-77
2023/12/01 04:52:45;;;;;;;21.38;12.65;;;;;;;-0.69;100.00;95749.88;5097602;28;20398;-78
2023/12/01 04:55:13;;;;;;;19.20;11.68;;;;;;;-0.70;100.00;95745.69;5099140;28;20421;-77
2023/12/01 04:57:42;;;;;;;20.38;12.00;;;;;;;-0.70;100.00;95746.50;5099142;28;20419;-78
2023/12/01 05:00:19;;;;;;;17.83;11.50;;;;;;;-0.69;100.00;95747.28;5099241;28;20908;-78
2023/12/01 05:02:51;;;;;;;17.97;11.07;;;;;;;-0.69;100.00;95742.09;5099836;28;20639;-78
2023/12/01 05:05:18;;;;;;;18.13;10.98;;;;;;;-0.69;100.00;95734.28;5099446;28;20408;-78
2023/12/01 05:07:45;;;;;;;14.52;9.52;;;;;;;-0.69;100.00;95742.09;5099493;28;20460;-77
2023/12/01 05:10:14;;;;;;;15.07;9.57;;;;;;;-0.69;100.00;95744.69;5104063;28;20414;-78
2023/12/01 05:12:44;;;;;;;14.32;9.43;;;;;;;-0.69;100.00;95749.88;5117264;28;20396;-77
2023/12/01 05:15:15;;;;;;;15.88;9.25;;;;;;;-0.69;100.00;95753.28;5117270;27;20870;-78
2023/12/01 05:17:42;;;;;;;16.35;9.48;;;;;;;-0.70;100.00;95756.88;5122655;27;20404;-78
2023/12/01 05:20:15;;;;;;;14.82;9.38;;;;;;;-0.69;100.00;95755.06;5120081;27;20392;-78
2023/12/01 05:22:43;;;;;;;14.32;9.10;;;;;;;-0.68;100.00;95748.88;5127518;27;20392;-77
2023/12/01 05:25:13;;;;;;;14.23;9.32;;;;;;;-0.69;100.00;95750.69;5116756;28;20779;-77
2023/12/01 05:27:43;;;;;;;13.05;8.45;;;;;;;-0.69;100.00;95748.06;5127592;27;20418;-77
2023/12/01 05:30:12;;;;;;;13.27;8.50;;;;;;;-0.69;100.00;95748.06;5127669;27;20487;-78
2023/12/01 05:32:38;;;;;;;12.23;8.40;;;;;;;-0.69;100.00;95752.47;5129828;27;20386;-79
2023/12/01 05:35:10;;;;;;;14.35;8.68;;;;;;;-0.68;100.00;95765.25;5130738;27;20481;-78
2023/12/01 05:37:37;;;;;;;15.40;8.98;;;;;;;-0.69;100.00;95765.47;5118660;27;20475;-77
2023/12/01 05:40:06;;;;;;;15.57;9.02;;;;;;;-0.69;100.00;95771.47;5125237;27;20489;-78
2023/12/01 05:42:32;;;;;;;15.35;9.23;;;;;;;-0.69;100.00;95768.88;5124665;27;20392;-78
2023/12/01 05:45:00;;;;;;;14.93;8.65;;;;;;;-0.68;100.00;95770.44;5128064;27;20754;-78
2023/12/01 05:47:26;;;;;;;14.40;8.30;;;;;;;-0.67;100.00;95774.59;5128270;27;20406;-78
2023/12/01 05:49:52;;;;;;;13.90;8.32;;;;;;;-0.67;100.00;95779.00;5120940;27;20714;-79
2023/12/01 05:52:19;;;;;;;14.95;8.40;;;;;;;-0.67;100.00;95784.22;5116170;28;20509;-79
2023/12/01 05:54:45;;;;;;;13.38;8.25;;;;;;;-0.67;100.00;95779.00;5115495;28;20428;-77
2023/12/01 05:57:11;;;;;;;15.57;8.10;;;;;;;-0.68;100.00;95770.44;5114802;28;20409;-79
2023/12/01 05:59:38;;;;;;;12.13;7.43;;;;;;;-0.67;100.00;95773.81;5115692;28;20401;-77
2023/12/01 06:02:11;;;;;;;13.27;7.97;;;;;;;-0.69;100.00;95768.88;5116160;28;20491;-78
2023/12/01 06:04:37;;;;;;;15.07;8.05;;;;;;;-0.68;100.00;95778.25;5117881;27;20921;-78
2023/12/01 06:07:03;;;;;;;14.18;7.88;;;;;;;-0.69;100.00;95776.66;5115324;28;20477;-78
2023/12/01 06:09:29;;;;;;;12.38;7.50;;;;;;;-0.68;100.00;95769.66;5115489;28;20404;-78
2023/12/01 06:11:55;;;;;;;13.93;7.90;;;;;;;-0.68;100.00;95767.06;5117042;28;20434;-79
2023/12/01 06:14:22;;;;;;;20.30;9.33;;;;;;;-0.68;100.00;95786.03;5116215;28;20465;-77
2023/12/01 06:16:48;;;;;;;17.60;9.30;;;;;;;-0.69;100.00;95791.44;5117243;27;20421;-78
2023/12/01 06:19:17;;;;;;;15.47;8.53;;;;;;;-0.68;100.00;95795.63;5116013;28;20391;-78
2023/12/01 06:21:43;;;;;;;15.55;9.27;;;;;;;-0.68;100.00;95800.84;5118734;28;20424;-78
2023/12/01 06:24:09;;;;;;;16.83;9.47;;;;;;;-0.68;100.00;95803.44;5119029;28;20439;-78
2023/12/01 06:26:35;;;;;;;20.38;10.15;;;;;;;-0.69;100.00;95815.63;5120652;28;20419;-79
2023/12/01 06:29:02;;;;;;;18.27;9.63;;;;;;;-0.69;100.00;95817.44;5120773;28;20399;-78
2023/12/01 06:31:28;;;;;;;16.98;9.57;;;;;;;-0.68;100.00;95806.03;5123926;28;20388;-79
2023/12/01 06:33:54;;;;;;;16.08;8.98;;;;;;;-0.68;100.00;95811.22;5121887;28;20463;-79
2023/12/01 06:36:22;;;;;;;13.98;8.43;;;;;;;-0.68;100.00;95806.03;5120130;28;20400;-78
2023/12/01 06:38:48;;;;;;;14.43;8.20;;;;;;;-0.68;100.00;95817.22;5119508;28;20452;-79
2023/12/01 06:41:14;;;;;;;13.98;7.82;;;;;;;-0.67;100.00;95812.78;5121266;28;20389;-79
2023/12/01 06:43:40;;;;;;;11.43;7.27;;;;;;;-0.68;100.00;95825.00;5120675;28;20406;-79
2023/12/01 06:46:06;;;;;;;13.02;7.13;;;;;;;-0.67;100.00;95820.59;5120374;28;20412;-79
2023/12/01 06:48:32;;;;;;;12.45;7.53;;;;;;;-0.67;100.00;95825.78;5118433;28;20408;-78
2023/12/01 06:50:59;;;;;;;12.93;7.22;;;;;;;-0.67;100.00;95834.38;5117971;28;20392;-79
2023/12/01 06:53:26;;;;;;;12.93;7.05;;;;;;;-0.66;100.00;95835.16;5118495;28;20433;-79
2023/12/01 06:55:52;;;;;;;13.68;7.55;;;;;;;-0.67;100.00;95836.97;5118862;28;20389;-79
2023/12/01 06:58:19;;;;;;;11.57;7.15;;;;;;;-0.67;100.00;95836.97;5121335;28;20436;-80
2023/12/01 07:00:45;;;;;;;12.70;7.03;;;;;;;-0.67;100.00;95839.56;5121128;28;20393;-80
2023/12/01 07:03:11;;;;;;;10.60;6.70;;;;;;;-0.68;100.00;95838.00;5118185;27;20384;-79
2023/12/01 07:05:39;;;;;;;11.52;6.57;;;;;;;-0.66;100.00;95842.97;5126657;27;20394;-78
2023/12/01 07:08:11;;;;;;;10.90;6.47;;;;;;;-0.67;100.00;95849.97;5129401;27;20617;-80
2023/12/01 07:10:39;;;;;;;12.68;6.65;;;;;;;-0.67;100.00;95849.97;5124613;27;20404;-80
2023/12/01 07:13:05;;;;;;;10.15;6.40;;;;;;;-0.67;100.00;95838.78;5134781;27;20385;-80
2023/12/01 07:15:32;;;;;;;15.82;8.27;;;;;;;-0.66;100.00;95846.34;5131605;27;20392;-78
2023/12/01 07:17:58;;;;;;;22.88;10.25;;;;;;;-0.67;100.00;95847.34;5122276;27;20931;-79
2023/12/01 07:20:25;;;;;;;20.17;9.57;;;;;;;-0.66;100.00;95853.34;5117210;28;20392;-81
2023/12/01 07:22:53;;;;;;;22.67;9.88;;;;;;;-0.65;100.00;95844.56;5128625;27;20391;-80
2023/12/01 07:25:23;;;;;;;19.80;9.93;;;;;;;-0.66;100.00;95824.78;5123062;27;20392;-78
2023/12/01 07:27:53;;;;;;;17.97;9.40;;;;;;;-0.64;100.00;95830.56;5126491;27;20414;-80
2023/12/01 07:30:19;;;;;;;17.27;8.90;;;;;;;-0.64;100.00;95848.75;5129353;27;20462;-80
2023/12/01 07:32:47;;;;;;;22.77;9.98;;;;;;;-0.65;100.00;95847.94;5121845;27;20388;-80
2023/12/01 07:35:13;;;;;;;25.80;11.52;;;;;;;-0.64;100.00;95846.13;5131497;27;20386;-78
2023/12/01 07:37:42;;;;;;;21.98;10.48;;;;;;;-0.65;100.00;95844.56;5131377;27;20955;-80
2023/12/01 07:40:09;;;;;;;20.05;9.25;;;;;;;-0.66;100.00;95828.16;5126614;27;20735;-80
2023/12/01 07:42:35;;;;;;;18.75;8.95;;;;;;;-0.65;100.00;95839.34;5124071;27;20392;-78
2023/12/01 07:45:03;;;;;;;18.00;8.83;;;;;;;-0.64;100.00;95841.75;5134192;27;20419;-79
2023/12/01 07:47:29;;;;;;;19.08;8.27;;;;;;;-0.64;100.00;95846.94;5130446;27;20457;-80
2023/12/01 07:49:56;;;;;;;17.58;7.72;;;;;;;-0.64;100.00;95838.34;5134645;27;20383;-79
2023/12/01 07:52:22;;;;;;;14.10;7.10;;;;;;;-0.63;100.00;95851.13;5143279;27;20387;-79
2023/12/01 07:54:48;;;;;;;17.38;7.10;;;;;;;-0.63;100.00;95853.72;5116013;28;20407;-79
2023/12/01 07:57:15;;;;;;;15.27;7.13;;;;;;;-0.63;100.00;95856.31;5123657;27;20399;-80
2023/12/01 07:59:41;;;;;;;15.68;7.68;;;;;;;-0.63;100.00;95869.31;5125722;27;20435;-81
2023/12/01 08:02:09;;;;;;;17.92;8.10;;;;;;;-0.61;100.00;95871.69;5130193;27;20385;-81
2023/12/01 08:04:36;;;;;;;15.60;7.50;;;;;;;-0.62;100.00;95870.09;5133076;27;20489;-80
2023/12/01 08:07:02;;;;;;;15.88;7.15;;;;;;;-0.62;100.00;95870.91;5124154;27;20499;-81
2023/12/01 08:09:31;;;;;;;15.93;7.13;;;;;;;-0.62;100.00;95870.91;5129498;27;20434;-81
2023/12/01 08:11:58;;;;;;;12.57;6.40;;;;;;;-0.60;100.00;95862.91;5125697;28;20398;-80
2023/12/01 08:14:25;;;;;;;12.32;6.30;;;;;;;-0.60;100.00;95865.50;5125003;28;20390;-81
2023/12/01 08:16:51;;;;;;;13.30;6.10;;;;;;;-0.60;100.00;95868.84;5122927;28;20449;-81
2023/12/01 08:19:19;;;;;;;11.30;6.00;;;;;;;-0.59;100.00;95869.66;5128431;28;20386;-81
2023/12/01 08:21:45;;;;;;;10.70;5.55;;;;;;;-0.59;100.00;95870.44;5134154;27;20437;-80
2023/12/01 08:24:12;;;;;;;12.65;5.50;;;;;;;-0.58;100.00;95881.63;5111608;27;20429;-81
2023/12/01 08:26:38;;;;;;;10.00;5.30;;;;;;;-0.58;100.00;95881.63;5129964;27;20403;-80
2023/12/01 08:29:05;;;;;;;9.63;5.22;;;;;;;-0.57;100.00;95894.41;5128068;27;20478;-81
2023/12/01 08:31:31;;;;;;;11.30;5.70;;;;;;;-0.58;100.00;95892.03;5128400;27;20399;-82
2023/12/01 08:33:58;;;;;;;11.27;5.32;;;;;;;-0.59;100.00;95880.03;5128408;27;20423;-81
2023/12/01 08:36:25;;;;;;;21.17;7.78;;;;;;;-0.59;100.00;95877.44;5131946;27;20414;-81
2023/12/01 08:38:52;;;;;;;37.65;12.48;;;;;;;-0.59;100.00;95880.03;5129220;27;20440;-81
2023/12/01 08:41:19;;;;;;;32.80;12.13;;;;;;;-0.60;100.00;95881.09;5132976;27;20383;-82
2023/12/01 08:43:45;;;;;;;26.92;10.70;;;;;;;-0.60;100.00;95875.88;5141066;27;20443;-82
2023/12/01 08:46:12;;;;;;;22.00;9.23;;;;;;;-0.59;100.00;95880.03;5131369;27;20396;-81
2023/12/01 08:48:38;;;;;;;20.48;8.65;;;;;;;-0.58;100.00;95881.63;5129237;27;20408;-80
2023/12/01 08:51:05;;;;;;;17.30;7.83;;;;;;;-0.58;100.00;95882.44;5126950;27;20414;-81
2023/12/01 08:53:32;;;;;;;18.60;7.68;;;;;;;-0.55;100.00;95863.03;5130362;27;20386;-81
2023/12/01 08:55:58;;;;;;;14.77;6.55;;;;;;;-0.53;100.00;95861.00;5132271;27;20388;-83
2023/12/01 08:58:25;;;;;;;13.03;6.57;;;;;;;-0.53;100.00;95877.41;5137561;27;20390;-81
2023/12/01 09:00:52;;;;;;;13.90;6.45;;;;;;;-0.51;100.00;95887.56;5133990;27;20435;-81
2023/12/01 09:03:18;;;;;;;13.07;6.60;;;;;;;-0.51;100.00;95882.34;5131946;27;20403;-81
2023/12/01 09:05:44;;;;;;;12.32;5.90;;;;;;;-0.52;100.00;95880.75;5139094;27;20859;-81
2023/12/01 09:08:12;;;;;;;12.17;5.67;;;;;;;-0.50;100.00;95881.34;5136140;27;20414;-82
2023/12/01 09:10:39;;;;;;;10.05;5.28;;;;;;;-0.49;100.00;95878.53;5126067;27;20389;-81
2023/12/01 09:13:05;;;;;;;11.57;5.30;;;;;;;-0.47;100.00;95875.72;5130688;27;20732;-82
2023/12/01 09:15:31;;;;;;;10.53;5.00;;;;;;;-0.45;100.00;95864.06;5130192;27;20967;-81
2023/12/01 09:17:57;;;;;;;11.50;5.13;;;;;;;-0.43;100.00;95864.66;5131438;27;20537;-81
2023/12/01 09:20:24;;;;;;;9.40;4.85;;;;;;;-0.42;100.00;95868.84;5127428;27;20421;-81
2023/12/01 09:22:50;;;;;;;10.63;4.93;;;;;;;-0.38;100.00;95890.00;5128867;27;20425;-82
2023/12/01 09:25:16;;;;;;;11.70;5.38;;;;;;;-0.36;100.00;95882.78;5129583;27;20390;-81
2023/12/01 09:27:44;;;;;;;10.18;5.05;;;;;;;-0.33;100.00;95878.94;5127825;27;20419;-81
2023/12/01 09:30:15;;;;;;;12.70;5.90;;;;;;;-0.33;100.00;95877.16;5130922;27;20408;-80
2023/12/01 09:32:42;;;;;;;12.13;5.50;;;;;;;-0.33;100.00;95879.75;5113699;27;20388;-81
2023/12/01 09:35:08;;;;;;;12.02;5.63;;;;;;;-0.33;100.00;95892.75;5132861;27;20395;-80
2023/12/01 09:37:34;;;;;;;12.93;5.90;;;;;;;-0.32;100.00;95911.75;5128052;27;20392;-80
2023/12/01 09:40:03;;;;;;;13.23;6.00;;;;;;;-0.33;100.00;95910.16;5135406;27;20420;-81
2023/12/01 09:42:32;;;;;;;13.48;5.95;;;;;;;-0.32;100.00;95914.34;5128585;27;20549;-81
2023/12/01 09:45:02;;;;;;;14.23;6.25;;;;;;;-0.33;100.00;95912.75;5131782;27;20395;-81
2023/12/01 09:47:33;;;;;;;14.10;6.30;;;;;;;-0.34;100.00;95898.94;5126948;27;20467;-81
2023/12/01 09:50:00;;;;;;;11.00;5.65;;;;;;;-0.33;100.00;95894.53;5122226;27;20759;-81
2023/12/01 09:52:26;;;;;;;11.60;5.47;;;;;;;-0.32;100.00;95890.94;5128077;27;20463;-81
2023/12/01 09:54:53;;;;;;;15.10;6.30;;;;;;;-0.32;100.00;95886.53;5118061;27;20398;-81
2023/12/01 09:57:20;;;;;;;14.30;5.95;;;;;;;-0.31;100.00;95887.31;5115247;27;20449;-81
2023/12/01 09:59:49;;;;;;;12.05;5.82;;;;;;;-0.30;100.00;95892.28;5108497;27;20388;-81
2023/12/01 10:02:16;;;;;;;12.43;5.95;;;;;;;-0.30;100.00;95896.72;5121614;27;20406;-82
2023/12/01 10:04:45;;;;;;;15.68;6.30;;;;;;;-0.29;100.00;95896.47;5114472;27;20379;-82
2023/12/01 10:07:11;;;;;;;15.95;7.15;;;;;;;-0.28;100.00;95886.88;5121537;27;20855;-82
2023/12/01 10:09:38;;;;;;;16.90;7.30;;;;;;;-0.27;100.00;95878.06;5119828;27;20749;-80
2023/12/01 10:12:08;;;;;;;13.02;6.03;;;;;;;-0.25;100.00;95876.03;5122160;27;20424;-81
2023/12/01 10:14:35;;;;;;;14.45;6.10;;;;;;;-0.25;100.00;95863.84;5120493;27;20381;-81
2023/12/01 10:17:03;;;;;;;13.57;6.00;;;;;;;-0.24;100.00;95870.63;5118940;28;20397;-80
2023/12/01 10:19:33;;;;;;;12.55;5.88;;;;;;;-0.22;100.00;95867.78;5124403;27;20393;-80
2023/12/01 10:22:00;;;;;;;12.30;5.75;;;;;;;-0.22;100.00;95865.19;5135492;27;20405;-80
2023/12/01 10:24:27;;;;;;;12.55;6.60;;;;;;;-0.21;100.00;95864.19;5138564;27;20399;-81
2023/12/01 10:26:54;;;;;;;13.77;6.40;;;;;;;-0.20;100.00;95871.75;5121298;27;20416;-81
2023/12/01 10:29:27;;;;;;;18.25;7.18;;;;;;;-0.20;100.00;95871.75;5121477;27;20405;-81
2023/12/01 10:31:54;;;;;;;16.92;6.82;;;;;;;-0.21;100.00;95864.97;5111028;27;20398;-82
2023/12/01 10:34:21;;;;;;;22.60;8.73;;;;;;;-0.20;100.00;95858.75;5134103;27;20381;-82
2023/12/01 10:36:49;;;;;;;27.73;10.17;;;;;;;-0.20;100.00;95845.75;5133497;27;20387;-81
2023/12/01 10:39:17;;;;;;;23.50;9.27;;;;;;;-0.20;100.00;95853.56;5103468;28;20394;-81
2023/12/01 10:41:44;;;;;;;23.33;9.52;;;;;;;-0.20;100.00;95845.75;5098598;28;21067;-81
2023/12/01 10:44:14;;;;;;;21.88;8.98;;;;;;;-0.20;100.00;95848.38;5115994;27;20388;-81
2023/12/01 10:46:43;;;;;;;21.55;9.05;;;;;;;-0.18;100.00;95855.94;5099264;27;20386;-82
2023/12/01 10:49:09;;;;;;;23.85;9.45;;;;;;;-0.17;100.00;95857.53;5138969;27;20398;-82
2023/12/01 10:51:39;;;;;;;34.65;10.52;;;;;;;-0.17;100.00;95863.53;5138288;27;20387;-82
2023/12/01 10:54:09;;;;;;;25.70;9.85;;;;;;;-0.16;100.00;95853.94;5133839;27;21105;-82
2023/12/01 10:56:43;;;;;;;21.23;8.43;;;;;;;-0.15;100.00;95845.13;5120843;27;22050;-81
2023/12/01 10:59:13;;;;;;;19.90;8.27;;;;;;;-0.14;100.00;95847.47;5134027;27;20921;-82
2023/12/01 11:01:41;;;;;;;16.65;7.20;;;;;;;-0.13;100.00;95843.88;5137219;27;20470;-82
2023/12/01 11:04:11;;;;;;;18.63;7.05;;;;;;;-0.12;100.00;95835.06;5127075;27;20394;-81
2023/12/01 11:06:48;;;;;;;24.75;8.95;;;;;;;-0.11;100.00;95834.03;5135043;27;20428;-81
2023/12/01 11:09:24;;;;;;;17.10;6.55;;;;;;;-0.10;100.00;95856.44;5132350;27;20881;-82
2023/12/01 11:11:58;;;;;;;16.63;7.45;;;;;;;-0.09;100.00;95857.22;5134072;27;20403;-82
2023/12/01 11:14:26;;;;;;;22.38;8.48;;;;;;;-0.12;100.00;95853.25;5133918;27;20413;-81